Pagrindinis puslapis
METAR-TAF:

METAR-TAF

Oro uostai :

Pratica Di Mare, Italija

platuma: 41-39N, ilguma: 012-27E, Aukštis: 6 m

Dabartinis oras

Ataskaita buvo paskelbta 46 minutes, ne 17:55 UTC
Vėjas 2 kt iš Rytų/Šiaurės Rytų
Temperatūra 22°C
Drėgmė 78%
Slėgis 1015 hPa
Matomumas 10 km arba daugiau
Išsisklaidę debesys ne aukštis 2000 ft
Mažai debesys ne aukštis 2300 ft, Liūtiniai kamuoliniai debesys.

METAR: LIRE 191755Z 07002KT 9999 SCT020 FEW023CB 22/18 Q1015 RMK BKN SCT100 VIS MIN 9999 WIND THR13 05002KT WIND THR31 /////KT BLU

Laikas: 20:41 (18:41 UTC)

Prognozė

Ataskaita buvo paskelbta 1 valandą ir 41 minutes, ne 17:00 UTC
Prognozė galioja nuo 19 metu 18 UTC su 20 metu 03 UTC
Vėjas 5 kt iš Pietų
Matomumas 10 km arba daugiau
Išsisklaidę debesys ne aukštis 2000 ft
Laikinai
nuo 19 metu 18 UTC su 19 metu 20 UTC
Mažai debesys ne aukštis 2000 ft, Liūtiniai kamuoliniai debesys.

TAF: LIRE 191700Z 1918/2003 18005KT 9999 SCT020 TEMPO 1918/1920 FEW020CB

Orai ataskaitas ir orų prognozės (METAR, TAF).

turimą stotys yra geltonos ir raudonos taškus žemėlapyje.

Perkelti pele per norėdami pamatyti stoties vardą.

Tada spustelėkite, norėdami matyti oro stebėjimo ir prognozės.

Norėdami pakeisti žemėlapį: spustelėkite ant žalios mygtukų su juodo kryžiaus žemyn,; žalią mygtuką su brūkšneliu, jei norite nutolinti; arba žalių rodyklių gretimoms žemėlapius.


METAR-TAF: